sensor_id;sensor_type;location;lat;lon;timestamp;temperature;humidity
18823;DHT22;9540;51.550;7.980;2024-01-30T00:00:34;7.70;99.90
18823;DHT22;9540;51.550;7.980;2024-01-30T00:03:01;7.70;99.90
18823;DHT22;9540;51.550;7.980;2024-01-30T00:05:30;7.80;99.90
18823;DHT22;9540;51.550;7.980;2024-01-30T00:07:57;7.80;99.90
18823;DHT22;9540;51.550;7.980;2024-01-30T00:10:24;7.80;99.90
18823;DHT22;9540;51.550;7.980;2024-01-30T00:12:53;7.80;99.90
18823;DHT22;9540;51.550;7.980;2024-01-30T00:15:20;7.80;99.90
18823;DHT22;9540;51.550;7.980;2024-01-30T00:17:47;7.80;99.90
18823;DHT22;9540;51.550;7.980;2024-01-30T00:20:14;7.80;99.90
18823;DHT22;9540;51.550;7.980;2024-01-30T00:22:43;7.80;99.90
18823;DHT22;9540;51.550;7.980;2024-01-30T00:25:10;7.80;99.90
18823;DHT22;9540;51.550;7.980;2024-01-30T00:27:37;7.80;99.90
18823;DHT22;9540;51.550;7.980;2024-01-30T00:30:05;7.70;99.90
18823;DHT22;9540;51.550;7.980;2024-01-30T00:32:32;7.70;99.90
18823;DHT22;9540;51.550;7.980;2024-01-30T00:34:59;7.70;99.90
18823;DHT22;9540;51.550;7.980;2024-01-30T00:37:26;7.70;99.90
18823;DHT22;9540;51.550;7.980;2024-01-30T00:39:54;7.70;99.90
18823;DHT22;9540;51.550;7.980;2024-01-30T00:42:22;7.70;99.90
18823;DHT22;9540;51.550;7.980;2024-01-30T00:44:49;7.70;99.90
18823;DHT22;9540;51.550;7.980;2024-01-30T00:47:17;7.70;99.90
18823;DHT22;9540;51.550;7.980;2024-01-30T00:49:44;7.60;99.90
18823;DHT22;9540;51.550;7.980;2024-01-30T00:52:11;7.70;99.90
18823;DHT22;9540;51.550;7.980;2024-01-30T00:54:38;7.70;99.90
18823;DHT22;9540;51.550;7.980;2024-01-30T00:57:07;7.70;99.90
18823;DHT22;9540;51.550;7.980;2024-01-30T00:59:34;7.70;99.90
18823;DHT22;9540;51.550;7.980;2024-01-30T01:02:01;7.70;99.90
18823;DHT22;9540;51.550;7.980;2024-01-30T01:04:29;7.70;99.90
18823;DHT22;9540;51.550;7.980;2024-01-30T01:06:56;7.70;99.90
18823;DHT22;9540;51.550;7.980;2024-01-30T01:09:23;7.70;99.90
18823;DHT22;9540;51.550;7.980;2024-01-30T01:11:52;7.60;99.90
18823;DHT22;9540;51.550;7.980;2024-01-30T01:14:21;7.60;99.90
18823;DHT22;9540;51.550;7.980;2024-01-30T01:16:49;7.50;99.90
18823;DHT22;9540;51.550;7.980;2024-01-30T01:19:17;7.50;99.90
18823;DHT22;9540;51.550;7.980;2024-01-30T01:21:45;7.60;99.90
18823;DHT22;9540;51.550;7.980;2024-01-30T01:24:14;7.50;99.90
18823;DHT22;9540;51.550;7.980;2024-01-30T01:26:41;7.60;99.90
18823;DHT22;9540;51.550;7.980;2024-01-30T01:29:09;7.60;99.90
18823;DHT22;9540;51.550;7.980;2024-01-30T01:31:39;7.50;99.90
18823;DHT22;9540;51.550;7.980;2024-01-30T01:34:10;7.60;99.90
18823;DHT22;9540;51.550;7.980;2024-01-30T01:36:38;7.50;99.90
18823;DHT22;9540;51.550;7.980;2024-01-30T01:39:06;7.50;99.90
18823;DHT22;9540;51.550;7.980;2024-01-30T01:41:34;7.50;99.90
18823;DHT22;9540;51.550;7.980;2024-01-30T01:44:02;7.50;99.90
18823;DHT22;9540;51.550;7.980;2024-01-30T01:46:33;7.60;99.90
18823;DHT22;9540;51.550;7.980;2024-01-30T01:49:04;7.60;99.90
18823;DHT22;9540;51.550;7.980;2024-01-30T01:51:34;7.60;99.90
18823;DHT22;9540;51.550;7.980;2024-01-30T01:54:04;7.60;99.90
18823;DHT22;9540;51.550;7.980;2024-01-30T01:56:33;7.60;99.90
18823;DHT22;9540;51.550;7.980;2024-01-30T01:59:05;7.60;99.90
18823;DHT22;9540;51.550;7.980;2024-01-30T02:01:34;7.70;99.90
18823;DHT22;9540;51.550;7.980;2024-01-30T02:04:07;7.70;99.90
18823;DHT22;9540;51.550;7.980;2024-01-30T02:06:36;7.60;99.90
18823;DHT22;9540;51.550;7.980;2024-01-30T02:09:04;7.60;99.90
18823;DHT22;9540;51.550;7.980;2024-01-30T02:11:32;7.70;99.90
18823;DHT22;9540;51.550;7.980;2024-01-30T02:14:02;7.60;99.90
18823;DHT22;9540;51.550;7.980;2024-01-30T02:16:29;7.60;99.90
18823;DHT22;9540;51.550;7.980;2024-01-30T02:18:57;7.70;99.90
18823;DHT22;9540;51.550;7.980;2024-01-30T02:21:25;7.60;99.90
18823;DHT22;9540;51.550;7.980;2024-01-30T02:23:52;7.60;99.90
18823;DHT22;9540;51.550;7.980;2024-01-30T02:26:21;7.70;99.90
18823;DHT22;9540;51.550;7.980;2024-01-30T02:28:48;7.70;99.90
18823;DHT22;9540;51.550;7.980;2024-01-30T02:31:15;7.80;99.90
18823;DHT22;9540;51.550;7.980;2024-01-30T02:33:42;7.70;99.90
18823;DHT22;9540;51.550;7.980;2024-01-30T02:36:09;7.70;99.90
18823;DHT22;9540;51.550;7.980;2024-01-30T02:38:38;7.70;99.90
18823;DHT22;9540;51.550;7.980;2024-01-30T02:41:05;7.70;99.90
18823;DHT22;9540;51.550;7.980;2024-01-30T02:43:32;7.70;99.90
18823;DHT22;9540;51.550;7.980;2024-01-30T02:46:02;7.70;99.90
18823;DHT22;9540;51.550;7.980;2024-01-30T02:48:29;7.70;99.90
18823;DHT22;9540;51.550;7.980;2024-01-30T02:50:56;7.70;99.90
18823;DHT22;9540;51.550;7.980;2024-01-30T02:53:23;7.70;99.90
18823;DHT22;9540;51.550;7.980;2024-01-30T02:55:52;7.70;99.90
18823;DHT22;9540;51.550;7.980;2024-01-30T02:58:19;7.70;99.90
18823;DHT22;9540;51.550;7.980;2024-01-30T03:00:46;7.70;99.90
18823;DHT22;9540;51.550;7.980;2024-01-30T03:03:13;7.70;99.90
18823;DHT22;9540;51.550;7.980;2024-01-30T03:05:40;7.70;99.90
18823;DHT22;9540;51.550;7.980;2024-01-30T03:08:07;7.70;99.90
18823;DHT22;9540;51.550;7.980;2024-01-30T03:10:34;7.70;99.90
18823;DHT22;9540;51.550;7.980;2024-01-30T03:13:03;7.70;99.90
18823;DHT22;9540;51.550;7.980;2024-01-30T03:15:30;7.80;99.90
18823;DHT22;9540;51.550;7.980;2024-01-30T03:17:58;7.70;99.90
18823;DHT22;9540;51.550;7.980;2024-01-30T03:20:25;7.70;99.90
18823;DHT22;9540;51.550;7.980;2024-01-30T03:22:55;7.70;99.90
18823;DHT22;9540;51.550;7.980;2024-01-30T03:25:22;7.70;99.90
18823;DHT22;9540;51.550;7.980;2024-01-30T03:27:49;7.70;99.90
18823;DHT22;9540;51.550;7.980;2024-01-30T03:30:18;7.80;99.90
18823;DHT22;9540;51.550;7.980;2024-01-30T03:32:45;7.80;99.90
18823;DHT22;9540;51.550;7.980;2024-01-30T03:35:12;7.80;99.90
18823;DHT22;9540;51.550;7.980;2024-01-30T03:37:39;7.80;99.90
18823;DHT22;9540;51.550;7.980;2024-01-30T03:40:07;7.80;99.90
18823;DHT22;9540;51.550;7.980;2024-01-30T03:42:34;7.80;99.90
18823;DHT22;9540;51.550;7.980;2024-01-30T03:45:01;7.70;99.90
18823;DHT22;9540;51.550;7.980;2024-01-30T03:47:30;7.80;99.90
18823;DHT22;9540;51.550;7.980;2024-01-30T03:49:57;7.70;99.90
18823;DHT22;9540;51.550;7.980;2024-01-30T03:52:24;7.70;99.90
18823;DHT22;9540;51.550;7.980;2024-01-30T03:54:51;7.70;99.90
18823;DHT22;9540;51.550;7.980;2024-01-30T03:57:18;7.70;99.90
18823;DHT22;9540;51.550;7.980;2024-01-30T03:59:45;7.70;99.90
18823;DHT22;9540;51.550;7.980;2024-01-30T04:02:12;7.70;99.90
18823;DHT22;9540;51.550;7.980;2024-01-30T04:04:41;7.70;99.90
18823;DHT22;9540;51.550;7.980;2024-01-30T04:07:08;7.80;99.90
18823;DHT22;9540;51.550;7.980;2024-01-30T04:09:38;7.70;99.90
18823;DHT22;9540;51.550;7.980;2024-01-30T04:12:06;7.70;99.90
18823;DHT22;9540;51.550;7.980;2024-01-30T04:14:33;7.80;99.90
18823;DHT22;9540;51.550;7.980;2024-01-30T04:17:01;7.70;99.90
18823;DHT22;9540;51.550;7.980;2024-01-30T04:19:29;7.70;99.90
18823;DHT22;9540;51.550;7.980;2024-01-30T04:21:57;7.80;99.90
18823;DHT22;9540;51.550;7.980;2024-01-30T04:24:24;7.70;99.90
18823;DHT22;9540;51.550;7.980;2024-01-30T04:26:51;7.70;99.90
18823;DHT22;9540;51.550;7.980;2024-01-30T04:29:18;7.70;99.90
18823;DHT22;9540;51.550;7.980;2024-01-30T04:31:45;7.70;99.90
18823;DHT22;9540;51.550;7.980;2024-01-30T04:34:12;7.70;99.90
18823;DHT22;9540;51.550;7.980;2024-01-30T04:36:39;7.70;99.90
18823;DHT22;9540;51.550;7.980;2024-01-30T04:39:11;7.70;99.90
18823;DHT22;9540;51.550;7.980;2024-01-30T04:41:38;7.70;99.90
18823;DHT22;9540;51.550;7.980;2024-01-30T04:44:05;7.70;99.90
18823;DHT22;9540;51.550;7.980;2024-01-30T04:46:32;7.80;99.90
18823;DHT22;9540;51.550;7.980;2024-01-30T04:49:00;7.80;99.90
18823;DHT22;9540;51.550;7.980;2024-01-30T04:51:27;7.70;99.90
18823;DHT22;9540;51.550;7.980;2024-01-30T04:53:54;7.70;99.90
18823;DHT22;9540;51.550;7.980;2024-01-30T04:56:22;7.70;99.90
18823;DHT22;9540;51.550;7.980;2024-01-30T04:58:49;7.70;99.90
18823;DHT22;9540;51.550;7.980;2024-01-30T05:01:17;7.70;99.90
18823;DHT22;9540;51.550;7.980;2024-01-30T05:03:44;7.60;99.90
18823;DHT22;9540;51.550;7.980;2024-01-30T05:06:11;7.60;99.90
18823;DHT22;9540;51.550;7.980;2024-01-30T05:08:38;7.60;99.90
18823;DHT22;9540;51.550;7.980;2024-01-30T05:11:05;7.60;99.90
18823;DHT22;9540;51.550;7.980;2024-01-30T05:13:34;7.60;99.90
18823;DHT22;9540;51.550;7.980;2024-01-30T05:16:02;7.60;99.90
18823;DHT22;9540;51.550;7.980;2024-01-30T05:18:30;7.60;99.90
18823;DHT22;9540;51.550;7.980;2024-01-30T05:20:57;7.60;99.90
18823;DHT22;9540;51.550;7.980;2024-01-30T05:23:24;7.60;99.90
18823;DHT22;9540;51.550;7.980;2024-01-30T05:25:51;7.60;99.90
18823;DHT22;9540;51.550;7.980;2024-01-30T05:28:18;7.50;99.90
18823;DHT22;9540;51.550;7.980;2024-01-30T05:30:46;7.50;99.90
18823;DHT22;9540;51.550;7.980;2024-01-30T05:33:14;7.50;99.90
18823;DHT22;9540;51.550;7.980;2024-01-30T05:35:41;7.60;99.90
18823;DHT22;9540;51.550;7.980;2024-01-30T05:38:08;7.60;99.90
18823;DHT22;9540;51.550;7.980;2024-01-30T05:40:35;7.60;99.90
18823;DHT22;9540;51.550;7.980;2024-01-30T05:43:02;7.60;99.90
18823;DHT22;9540;51.550;7.980;2024-01-30T05:45:29;7.60;99.90
18823;DHT22;9540;51.550;7.980;2024-01-30T05:47:58;7.60;99.90
18823;DHT22;9540;51.550;7.980;2024-01-30T05:50:25;7.60;99.90
18823;DHT22;9540;51.550;7.980;2024-01-30T05:52:52;7.70;99.90
18823;DHT22;9540;51.550;7.980;2024-01-30T05:55:19;7.80;99.90
18823;DHT22;9540;51.550;7.980;2024-01-30T05:57:46;7.80;99.90
18823;DHT22;9540;51.550;7.980;2024-01-30T06:00:14;7.80;99.90
18823;DHT22;9540;51.550;7.980;2024-01-30T06:02:41;7.70;99.90
18823;DHT22;9540;51.550;7.980;2024-01-30T06:05:10;7.60;99.90
18823;DHT22;9540;51.550;7.980;2024-01-30T06:07:37;7.60;99.90
18823;DHT22;9540;51.550;7.980;2024-01-30T06:10:05;7.60;99.90
18823;DHT22;9540;51.550;7.980;2024-01-30T06:12:34;7.60;99.90
18823;DHT22;9540;51.550;7.980;2024-01-30T06:15:01;7.60;99.90
18823;DHT22;9540;51.550;7.980;2024-01-30T06:17:28;7.60;99.90
18823;DHT22;9540;51.550;7.980;2024-01-30T06:19:55;7.60;99.90
18823;DHT22;9540;51.550;7.980;2024-01-30T06:22:24;7.60;99.90
18823;DHT22;9540;51.550;7.980;2024-01-30T06:24:51;7.60;99.90
18823;DHT22;9540;51.550;7.980;2024-01-30T06:27:18;7.60;99.90
18823;DHT22;9540;51.550;7.980;2024-01-30T06:29:45;7.60;99.90
18823;DHT22;9540;51.550;7.980;2024-01-30T06:32:12;7.70;99.90
18823;DHT22;9540;51.550;7.980;2024-01-30T06:34:40;7.80;99.90
18823;DHT22;9540;51.550;7.980;2024-01-30T06:37:09;7.80;99.90
18823;DHT22;9540;51.550;7.980;2024-01-30T06:39:38;7.80;99.90
18823;DHT22;9540;51.550;7.980;2024-01-30T06:42:05;7.80;99.90
18823;DHT22;9540;51.550;7.980;2024-01-30T06:44:32;7.80;99.90
18823;DHT22;9540;51.550;7.980;2024-01-30T06:46:59;7.80;99.90
18823;DHT22;9540;51.550;7.980;2024-01-30T06:49:26;7.90;99.90
18823;DHT22;9540;51.550;7.980;2024-01-30T06:51:54;7.90;99.90
18823;DHT22;9540;51.550;7.980;2024-01-30T06:54:21;7.90;99.90
18823;DHT22;9540;51.550;7.980;2024-01-30T06:56:50;7.90;99.90
18823;DHT22;9540;51.550;7.980;2024-01-30T06:59:17;8.00;99.90
18823;DHT22;9540;51.550;7.980;2024-01-30T07:01:44;8.10;99.90
18823;DHT22;9540;51.550;7.980;2024-01-30T07:04:11;8.10;99.90
18823;DHT22;9540;51.550;7.980;2024-01-30T07:06:37;8.10;99.90
18823;DHT22;9540;51.550;7.980;2024-01-30T07:09:05;8.10;99.90
18823;DHT22;9540;51.550;7.980;2024-01-30T07:11:32;8.10;99.90
18823;DHT22;9540;51.550;7.980;2024-01-30T07:14:00;8.10;99.90
18823;DHT22;9540;51.550;7.980;2024-01-30T07:16:29;8.10;99.90
18823;DHT22;9540;51.550;7.980;2024-01-30T07:18:56;8.10;99.90
18823;DHT22;9540;51.550;7.980;2024-01-30T07:21:23;8.10;99.90
18823;DHT22;9540;51.550;7.980;2024-01-30T07:23:53;8.20;99.90
18823;DHT22;9540;51.550;7.980;2024-01-30T07:26:20;8.20;99.90
18823;DHT22;9540;51.550;7.980;2024-01-30T07:28:48;8.30;99.90
18823;DHT22;9540;51.550;7.980;2024-01-30T07:31:17;8.30;99.90
18823;DHT22;9540;51.550;7.980;2024-01-30T07:33:46;8.30;99.90
18823;DHT22;9540;51.550;7.980;2024-01-30T07:36:13;8.40;99.90
18823;DHT22;9540;51.550;7.980;2024-01-30T07:38:40;8.50;99.90
18823;DHT22;9540;51.550;7.980;2024-01-30T07:41:08;8.50;99.90
18823;DHT22;9540;51.550;7.980;2024-01-30T07:43:35;8.40;99.90
18823;DHT22;9540;51.550;7.980;2024-01-30T07:46:02;8.50;99.90
18823;DHT22;9540;51.550;7.980;2024-01-30T07:48:30;8.50;99.90
18823;DHT22;9540;51.550;7.980;2024-01-30T07:51:00;8.60;99.90
18823;DHT22;9540;51.550;7.980;2024-01-30T07:53:28;8.60;99.90
18823;DHT22;9540;51.550;7.980;2024-01-30T08:02:41;8.80;99.90
18823;DHT22;9540;51.550;7.980;2024-01-30T08:05:10;8.80;99.90
18823;DHT22;9540;51.550;7.980;2024-01-30T08:07:37;8.90;99.90
18823;DHT22;9540;51.550;7.980;2024-01-30T08:10:05;9.00;99.90
18823;DHT22;9540;51.550;7.980;2024-01-30T08:12:33;9.10;99.90
18823;DHT22;9540;51.550;7.980;2024-01-30T08:15:00;9.20;99.90
18823;DHT22;9540;51.550;7.980;2024-01-30T08:17:27;9.20;99.90
18823;DHT22;9540;51.550;7.980;2024-01-30T08:19:54;9.30;99.90
18823;DHT22;9540;51.550;7.980;2024-01-30T08:22:23;9.30;99.90
18823;DHT22;9540;51.550;7.980;2024-01-30T08:24:50;9.40;99.90
18823;DHT22;9540;51.550;7.980;2024-01-30T08:27:17;9.50;99.90
18823;DHT22;9540;51.550;7.980;2024-01-30T08:29:44;9.70;99.90
18823;DHT22;9540;51.550;7.980;2024-01-30T08:32:11;10.00;99.90
18823;DHT22;9540;51.550;7.980;2024-01-30T08:34:38;9.90;99.90
18823;DHT22;9540;51.550;7.980;2024-01-30T08:37:08;9.90;99.90
18823;DHT22;9540;51.550;7.980;2024-01-30T08:39:37;9.90;99.90
18823;DHT22;9540;51.550;7.980;2024-01-30T08:42:05;9.90;99.90
18823;DHT22;9540;51.550;7.980;2024-01-30T08:44:33;10.00;99.90
18823;DHT22;9540;51.550;7.980;2024-01-30T08:47:00;10.10;99.90
18823;DHT22;9540;51.550;7.980;2024-01-30T08:49:28;10.10;99.90
18823;DHT22;9540;51.550;7.980;2024-01-30T08:51:56;10.10;99.90
18823;DHT22;9540;51.550;7.980;2024-01-30T08:54:23;10.20;99.90
18823;DHT22;9540;51.550;7.980;2024-01-30T08:56:52;10.20;99.90
18823;DHT22;9540;51.550;7.980;2024-01-30T08:59:19;10.30;99.90
18823;DHT22;9540;51.550;7.980;2024-01-30T09:01:46;10.30;99.90
18823;DHT22;9540;51.550;7.980;2024-01-30T09:04:13;10.50;99.90
18823;DHT22;9540;51.550;7.980;2024-01-30T09:06:40;10.80;99.90
18823;DHT22;9540;51.550;7.980;2024-01-30T09:09:07;10.90;99.90
18823;DHT22;9540;51.550;7.980;2024-01-30T09:11:35;11.00;99.90
18823;DHT22;9540;51.550;7.980;2024-01-30T09:14:02;11.00;99.90
18823;DHT22;9540;51.550;7.980;2024-01-30T09:16:29;11.10;99.90
18823;DHT22;9540;51.550;7.980;2024-01-30T09:18:57;11.00;99.90
18823;DHT22;9540;51.550;7.980;2024-01-30T09:21:24;11.00;99.90
18823;DHT22;9540;51.550;7.980;2024-01-30T09:23:53;11.10;99.90
18823;DHT22;9540;51.550;7.980;2024-01-30T09:26:21;11.00;99.90
18823;DHT22;9540;51.550;7.980;2024-01-30T09:28:48;11.00;99.90
18823;DHT22;9540;51.550;7.980;2024-01-30T09:31:16;11.00;99.90
18823;DHT22;9540;51.550;7.980;2024-01-30T09:33:43;11.00;99.90
18823;DHT22;9540;51.550;7.980;2024-01-30T09:36:13;11.10;99.90
18823;DHT22;9540;51.550;7.980;2024-01-30T09:38:41;11.20;99.90
18823;DHT22;9540;51.550;7.980;2024-01-30T09:41:09;11.20;99.90
18823;DHT22;9540;51.550;7.980;2024-01-30T09:43:38;11.20;99.90
18823;DHT22;9540;51.550;7.980;2024-01-30T09:46:06;11.30;99.90
18823;DHT22;9540;51.550;7.980;2024-01-30T09:48:36;11.60;99.90
18823;DHT22;9540;51.550;7.980;2024-01-30T09:51:03;11.90;99.90
18823;DHT22;9540;51.550;7.980;2024-01-30T09:53:31;12.10;99.90
18823;DHT22;9540;51.550;7.980;2024-01-30T09:55:58;12.20;99.90
18823;DHT22;9540;51.550;7.980;2024-01-30T09:58:26;12.20;99.90
18823;DHT22;9540;51.550;7.980;2024-01-30T10:00:53;12.10;99.90
18823;DHT22;9540;51.550;7.980;2024-01-30T10:03:20;11.90;99.90
18823;DHT22;9540;51.550;7.980;2024-01-30T10:05:51;11.80;99.90
18823;DHT22;9540;51.550;7.980;2024-01-30T10:08:19;11.70;99.90
18823;DHT22;9540;51.550;7.980;2024-01-30T10:10:47;11.60;99.90
18823;DHT22;9540;51.550;7.980;2024-01-30T10:13:14;11.70;99.90
18823;DHT22;9540;51.550;7.980;2024-01-30T10:15:41;11.70;99.90
18823;DHT22;9540;51.550;7.980;2024-01-30T10:18:12;11.80;99.90
18823;DHT22;9540;51.550;7.980;2024-01-30T10:20:39;12.10;99.90
18823;DHT22;9540;51.550;7.980;2024-01-30T10:23:07;12.30;99.90
18823;DHT22;9540;51.550;7.980;2024-01-30T10:25:35;12.40;99.90
18823;DHT22;9540;51.550;7.980;2024-01-30T10:28:02;12.30;99.90
18823;DHT22;9540;51.550;7.980;2024-01-30T10:30:30;12.20;99.90
18823;DHT22;9540;51.550;7.980;2024-01-30T10:32:57;12.10;99.90
18823;DHT22;9540;51.550;7.980;2024-01-30T10:35:24;12.10;99.90
18823;DHT22;9540;51.550;7.980;2024-01-30T10:37:51;12.20;99.90
18823;DHT22;9540;51.550;7.980;2024-01-30T10:40:21;12.40;99.90
18823;DHT22;9540;51.550;7.980;2024-01-30T10:42:53;12.40;99.90
18823;DHT22;9540;51.550;7.980;2024-01-30T10:45:22;12.60;99.90
18823;DHT22;9540;51.550;7.980;2024-01-30T10:47:50;12.70;99.90
18823;DHT22;9540;51.550;7.980;2024-01-30T10:50:20;12.90;99.90
18823;DHT22;9540;51.550;7.980;2024-01-30T10:52:47;12.90;99.90
18823;DHT22;9540;51.550;7.980;2024-01-30T10:55:16;13.10;99.90
18823;DHT22;9540;51.550;7.980;2024-01-30T10:57:44;13.10;99.90
18823;DHT22;9540;51.550;7.980;2024-01-30T11:00:13;13.10;99.90
18823;DHT22;9540;51.550;7.980;2024-01-30T11:02:43;13.00;99.90
18823;DHT22;9540;51.550;7.980;2024-01-30T11:05:10;12.90;99.90
18823;DHT22;9540;51.550;7.980;2024-01-30T11:07:39;13.00;99.90
18823;DHT22;9540;51.550;7.980;2024-01-30T11:10:07;13.00;99.90
18823;DHT22;9540;51.550;7.980;2024-01-30T11:12:38;12.90;99.90
18823;DHT22;9540;51.550;7.980;2024-01-30T11:15:13;13.00;99.90
18823;DHT22;9540;51.550;7.980;2024-01-30T11:17:45;13.00;99.90
18823;DHT22;9540;51.550;7.980;2024-01-30T11:20:21;13.00;99.90
18823;DHT22;9540;51.550;7.980;2024-01-30T11:22:51;12.90;99.90
18823;DHT22;9540;51.550;7.980;2024-01-30T11:25:19;12.80;99.90
18823;DHT22;9540;51.550;7.980;2024-01-30T11:27:49;12.70;99.90
18823;DHT22;9540;51.550;7.980;2024-01-30T11:30:24;12.60;99.90
18823;DHT22;9540;51.550;7.980;2024-01-30T11:32:59;12.60;99.90
18823;DHT22;9540;51.550;7.980;2024-01-30T11:35:26;12.60;99.90
18823;DHT22;9540;51.550;7.980;2024-01-30T11:37:54;12.70;99.90
18823;DHT22;9540;51.550;7.980;2024-01-30T11:40:21;12.80;99.90
18823;DHT22;9540;51.550;7.980;2024-01-30T11:42:51;12.90;99.90
18823;DHT22;9540;51.550;7.980;2024-01-30T11:45:18;13.10;99.90
18823;DHT22;9540;51.550;7.980;2024-01-30T11:47:46;13.30;99.90
18823;DHT22;9540;51.550;7.980;2024-01-30T11:50:14;13.40;99.90
18823;DHT22;9540;51.550;7.980;2024-01-30T11:52:41;13.40;99.90
18823;DHT22;9540;51.550;7.980;2024-01-30T11:55:09;13.50;99.90
18823;DHT22;9540;51.550;7.980;2024-01-30T11:57:37;13.60;99.90
18823;DHT22;9540;51.550;7.980;2024-01-30T12:00:05;13.70;99.90
18823;DHT22;9540;51.550;7.980;2024-01-30T12:02:35;13.70;99.90
18823;DHT22;9540;51.550;7.980;2024-01-30T12:05:05;13.50;99.90
18823;DHT22;9540;51.550;7.980;2024-01-30T12:07:33;13.50;99.90
18823;DHT22;9540;51.550;7.980;2024-01-30T12:10:00;13.50;99.90
18823;DHT22;9540;51.550;7.980;2024-01-30T12:12:28;13.40;99.90
18823;DHT22;9540;51.550;7.980;2024-01-30T12:14:56;13.40;99.90
18823;DHT22;9540;51.550;7.980;2024-01-30T12:17:26;13.50;99.90
18823;DHT22;9540;51.550;7.980;2024-01-30T12:20:04;13.50;99.90
18823;DHT22;9540;51.550;7.980;2024-01-30T12:22:33;13.60;99.90
18823;DHT22;9540;51.550;7.980;2024-01-30T12:25:00;14.00;99.90
18823;DHT22;9540;51.550;7.980;2024-01-30T12:27:28;14.40;99.90
18823;DHT22;9540;51.550;7.980;2024-01-30T12:29:58;14.80;99.90
18823;DHT22;9540;51.550;7.980;2024-01-30T12:32:25;14.80;99.90
18823;DHT22;9540;51.550;7.980;2024-01-30T12:34:55;14.50;99.90
18823;DHT22;9540;51.550;7.980;2024-01-30T12:37:24;14.20;99.90
18823;DHT22;9540;51.550;7.980;2024-01-30T12:39:52;14.20;99.90
18823;DHT22;9540;51.550;7.980;2024-01-30T12:42:20;14.00;99.90
18823;DHT22;9540;51.550;7.980;2024-01-30T12:44:48;13.90;99.90
18823;DHT22;9540;51.550;7.980;2024-01-30T12:47:18;14.00;99.90
18823;DHT22;9540;51.550;7.980;2024-01-30T12:49:48;14.10;99.90
18823;DHT22;9540;51.550;7.980;2024-01-30T12:52:18;14.00;99.90
18823;DHT22;9540;51.550;7.980;2024-01-30T12:54:46;13.80;99.90
18823;DHT22;9540;51.550;7.980;2024-01-30T12:57:13;13.70;99.90
18823;DHT22;9540;51.550;7.980;2024-01-30T12:59:40;13.80;99.90
18823;DHT22;9540;51.550;7.980;2024-01-30T13:02:08;13.70;99.90
18823;DHT22;9540;51.550;7.980;2024-01-30T13:04:35;13.60;99.90
18823;DHT22;9540;51.550;7.980;2024-01-30T13:07:02;13.50;99.90
18823;DHT22;9540;51.550;7.980;2024-01-30T13:09:30;13.50;99.90
18823;DHT22;9540;51.550;7.980;2024-01-30T13:11:59;13.50;99.90
18823;DHT22;9540;51.550;7.980;2024-01-30T13:14:26;13.40;99.90
18823;DHT22;9540;51.550;7.980;2024-01-30T13:16:53;13.30;99.90
18823;DHT22;9540;51.550;7.980;2024-01-30T13:19:21;13.10;99.90
18823;DHT22;9540;51.550;7.980;2024-01-30T13:21:48;13.00;99.90
18823;DHT22;9540;51.550;7.980;2024-01-30T13:24:15;12.90;99.90
18823;DHT22;9540;51.550;7.980;2024-01-30T13:26:42;12.80;99.90
18823;DHT22;9540;51.550;7.980;2024-01-30T13:29:11;12.80;99.90
18823;DHT22;9540;51.550;7.980;2024-01-30T13:31:38;12.80;99.90
18823;DHT22;9540;51.550;7.980;2024-01-30T13:34:06;12.70;99.90
18823;DHT22;9540;51.550;7.980;2024-01-30T13:36:33;12.80;99.90
18823;DHT22;9540;51.550;7.980;2024-01-30T13:39:00;12.80;99.90
18823;DHT22;9540;51.550;7.980;2024-01-30T13:41:28;12.80;99.90
18823;DHT22;9540;51.550;7.980;2024-01-30T13:43:58;12.80;99.90
18823;DHT22;9540;51.550;7.980;2024-01-30T13:46:27;12.70;99.90
18823;DHT22;9540;51.550;7.980;2024-01-30T13:48:54;12.70;99.90
18823;DHT22;9540;51.550;7.980;2024-01-30T13:51:21;12.60;99.90
18823;DHT22;9540;51.550;7.980;2024-01-30T13:53:48;12.50;99.90
18823;DHT22;9540;51.550;7.980;2024-01-30T13:56:16;12.50;99.90
18823;DHT22;9540;51.550;7.980;2024-01-30T13:58:43;12.40;99.90
18823;DHT22;9540;51.550;7.980;2024-01-30T14:01:11;12.40;99.90
18823;DHT22;9540;51.550;7.980;2024-01-30T14:03:39;12.30;99.90
18823;DHT22;9540;51.550;7.980;2024-01-30T14:06:06;12.30;99.90
18823;DHT22;9540;51.550;7.980;2024-01-30T14:08:33;12.20;99.90
18823;DHT22;9540;51.550;7.980;2024-01-30T14:11:00;12.20;99.90
18823;DHT22;9540;51.550;7.980;2024-01-30T14:13:27;12.20;99.90
18823;DHT22;9540;51.550;7.980;2024-01-30T14:15:56;12.20;99.90
18823;DHT22;9540;51.550;7.980;2024-01-30T14:18:23;12.10;99.90
18823;DHT22;9540;51.550;7.980;2024-01-30T14:20:52;12.10;99.90
18823;DHT22;9540;51.550;7.980;2024-01-30T14:23:20;12.00;99.90
18823;DHT22;9540;51.550;7.980;2024-01-30T14:25:47;12.00;99.90
18823;DHT22;9540;51.550;7.980;2024-01-30T14:28:14;12.00;99.90
18823;DHT22;9540;51.550;7.980;2024-01-30T14:30:41;12.00;99.90
18823;DHT22;9540;51.550;7.980;2024-01-30T14:33:08;12.00;99.90
18823;DHT22;9540;51.550;7.980;2024-01-30T14:35:35;12.00;99.90
18823;DHT22;9540;51.550;7.980;2024-01-30T14:38:04;12.00;99.90
18823;DHT22;9540;51.550;7.980;2024-01-30T14:40:33;12.00;99.90
18823;DHT22;9540;51.550;7.980;2024-01-30T14:43:00;12.00;99.90
18823;DHT22;9540;51.550;7.980;2024-01-30T14:45:27;12.00;99.90
18823;DHT22;9540;51.550;7.980;2024-01-30T14:47:54;11.90;99.90
18823;DHT22;9540;51.550;7.980;2024-01-30T14:50:22;11.90;99.90
18823;DHT22;9540;51.550;7.980;2024-01-30T14:52:49;11.80;99.90
18823;DHT22;9540;51.550;7.980;2024-01-30T14:55:18;11.80;99.90
18823;DHT22;9540;51.550;7.980;2024-01-30T14:57:45;11.80;99.90
18823;DHT22;9540;51.550;7.980;2024-01-30T15:00:13;11.80;99.90
18823;DHT22;9540;51.550;7.980;2024-01-30T15:02:41;11.80;99.90
18823;DHT22;9540;51.550;7.980;2024-01-30T15:05:08;11.80;99.90
18823;DHT22;9540;51.550;7.980;2024-01-30T15:07:36;11.80;99.90
18823;DHT22;9540;51.550;7.980;2024-01-30T15:10:04;11.80;99.90
18823;DHT22;9540;51.550;7.980;2024-01-30T15:12:33;11.80;99.90
18823;DHT22;9540;51.550;7.980;2024-01-30T15:15:04;11.80;99.90
18823;DHT22;9540;51.550;7.980;2024-01-30T15:17:32;11.90;99.90
18823;DHT22;9540;51.550;7.980;2024-01-30T15:19:59;11.80;99.90
18823;DHT22;9540;51.550;7.980;2024-01-30T15:22:26;11.80;99.90
18823;DHT22;9540;51.550;7.980;2024-01-30T15:24:53;11.80;99.90
18823;DHT22;9540;51.550;7.980;2024-01-30T15:27:20;11.80;99.90
18823;DHT22;9540;51.550;7.980;2024-01-30T15:29:48;11.70;99.90
18823;DHT22;9540;51.550;7.980;2024-01-30T15:32:16;11.80;99.90
18823;DHT22;9540;51.550;7.980;2024-01-30T15:34:43;11.70;99.90
18823;DHT22;9540;51.550;7.980;2024-01-30T15:37:10;11.70;99.90
18823;DHT22;9540;51.550;7.980;2024-01-30T15:39:37;11.60;99.90
18823;DHT22;9540;51.550;7.980;2024-01-30T15:42:04;11.60;99.90
18823;DHT22;9540;51.550;7.980;2024-01-30T15:44:31;11.60;99.90
18823;DHT22;9540;51.550;7.980;2024-01-30T15:47:00;11.50;99.90
18823;DHT22;9540;51.550;7.980;2024-01-30T15:49:27;11.50;99.90
18823;DHT22;9540;51.550;7.980;2024-01-30T15:51:54;11.50;99.90
18823;DHT22;9540;51.550;7.980;2024-01-30T15:54:21;11.50;99.90
18823;DHT22;9540;51.550;7.980;2024-01-30T15:56:48;11.40;99.90
18823;DHT22;9540;51.550;7.980;2024-01-30T15:59:15;11.40;99.90
18823;DHT22;9540;51.550;7.980;2024-01-30T16:01:42;11.30;99.90
18823;DHT22;9540;51.550;7.980;2024-01-30T16:04:15;11.30;99.90